sensor_id;sensor_type;location;lat;lon;timestamp;P1;durP1;ratioP1;P2;durP2;ratioP2
71162;SDS011;58858;50.948;6.566;2022-09-20T00:05:21;7.32;;;2.38;;
71162;SDS011;58858;50.948;6.566;2022-09-20T00:15:22;6.03;;;1.98;;
71162;SDS011;58858;50.948;6.566;2022-09-20T00:25:23;8.68;;;2.38;;
71162;SDS011;58858;50.948;6.566;2022-09-20T00:35:24;2.97;;;1.63;;
71162;SDS011;58858;50.948;6.566;2022-09-20T00:45:26;7.53;;;2.53;;
71162;SDS011;58858;50.948;6.566;2022-09-20T00:55:28;5.80;;;2.97;;
71162;SDS011;58858;50.948;6.566;2022-09-20T01:05:29;9.60;;;3.00;;
71162;SDS011;58858;50.948;6.566;2022-09-20T01:15:31;5.95;;;2.42;;
71162;SDS011;58858;50.948;6.566;2022-09-20T01:36:06;6.28;;;2.17;;
71162;SDS011;58858;50.948;6.566;2022-09-20T02:06:58;6.80;;;1.75;;
71162;SDS011;58858;50.948;6.566;2022-09-20T02:17:27;8.70;;;1.70;;
71162;SDS011;58858;50.948;6.566;2022-09-20T02:27:49;9.07;;;2.80;;
71162;SDS011;58858;50.948;6.566;2022-09-20T02:38:30;6.47;;;1.75;;
71162;SDS011;58858;50.948;6.566;2022-09-20T02:48:35;8.75;;;2.40;;
71162;SDS011;58858;50.948;6.566;2022-09-20T02:58:53;8.00;;;1.63;;
71162;SDS011;58858;50.948;6.566;2022-09-20T04:00:31;7.93;;;2.72;;
71162;SDS011;58858;50.948;6.566;2022-09-20T04:21:18;5.45;;;1.88;;
71162;SDS011;58858;50.948;6.566;2022-09-20T04:52:05;7.45;;;2.90;;
71162;SDS011;58858;50.948;6.566;2022-09-20T05:13:30;12.43;;;3.47;;
71162;SDS011;58858;50.948;6.566;2022-09-20T05:24:19;11.02;;;4.32;;
71162;SDS011;58858;50.948;6.566;2022-09-20T05:34:40;10.27;;;4.88;;
71162;SDS011;58858;50.948;6.566;2022-09-20T05:55:27;14.93;;;6.10;;
71162;SDS011;58858;50.948;6.566;2022-09-20T06:06:03;9.88;;;5.10;;
71162;SDS011;58858;50.948;6.566;2022-09-20T06:26:15;16.17;;;5.88;;
71162;SDS011;58858;50.948;6.566;2022-09-20T06:46:53;11.65;;;5.25;;
71162;SDS011;58858;50.948;6.566;2022-09-20T06:56:54;11.88;;;5.28;;
71162;SDS011;58858;50.948;6.566;2022-09-20T07:06:59;12.75;;;4.22;;
71162;SDS011;58858;50.948;6.566;2022-09-20T07:17:04;9.93;;;3.83;;
71162;SDS011;58858;50.948;6.566;2022-09-20T07:27:06;9.30;;;3.55;;
71162;SDS011;58858;50.948;6.566;2022-09-20T07:37:07;11.40;;;3.58;;
71162;SDS011;58858;50.948;6.566;2022-09-20T07:47:08;9.13;;;2.70;;
71162;SDS011;58858;50.948;6.566;2022-09-20T07:57:10;5.18;;;2.40;;
71162;SDS011;58858;50.948;6.566;2022-09-20T08:07:11;6.05;;;2.00;;
71162;SDS011;58858;50.948;6.566;2022-09-20T08:17:12;6.10;;;2.22;;
71162;SDS011;58858;50.948;6.566;2022-09-20T08:27:14;5.50;;;2.13;;
71162;SDS011;58858;50.948;6.566;2022-09-20T08:37:15;12.93;;;2.00;;
71162;SDS011;58858;50.948;6.566;2022-09-20T08:47:23;5.72;;;1.30;;
71162;SDS011;58858;50.948;6.566;2022-09-20T08:57:28;5.03;;;2.85;;
71162;SDS011;58858;50.948;6.566;2022-09-20T09:07:32;4.73;;;2.03;;
71162;SDS011;58858;50.948;6.566;2022-09-20T09:17:33;9.02;;;2.10;;
71162;SDS011;58858;50.948;6.566;2022-09-20T09:27:34;3.90;;;1.27;;
71162;SDS011;58858;50.948;6.566;2022-09-20T09:38:00;5.20;;;1.33;;
71162;SDS011;58858;50.948;6.566;2022-09-20T09:48:02;7.13;;;1.85;;
71162;SDS011;58858;50.948;6.566;2022-09-20T10:30:06;2.58;;;1.20;;
71162;SDS011;58858;50.948;6.566;2022-09-20T11:00:41;5.30;;;1.85;;
71162;SDS011;58858;50.948;6.566;2022-09-20T11:10:49;2.30;;;0.90;;
71162;SDS011;58858;50.948;6.566;2022-09-20T11:21:09;4.15;;;1.10;;
71162;SDS011;58858;50.948;6.566;2022-09-20T11:31:20;4.32;;;1.38;;
71162;SDS011;58858;50.948;6.566;2022-09-20T11:41:27;7.68;;;1.52;;
71162;SDS011;58858;50.948;6.566;2022-09-20T12:01:59;3.47;;;0.68;;
71162;SDS011;58858;50.948;6.566;2022-09-20T12:12:14;1.98;;;0.60;;
71162;SDS011;58858;50.948;6.566;2022-09-20T12:22:29;4.53;;;1.23;;
71162;SDS011;58858;50.948;6.566;2022-09-20T12:42:38;3.83;;;0.80;;
71162;SDS011;58858;50.948;6.566;2022-09-20T13:03:20;3.50;;;1.02;;
71162;SDS011;58858;50.948;6.566;2022-09-20T13:13:30;4.28;;;1.30;;
71162;SDS011;58858;50.948;6.566;2022-09-20T13:23:43;7.47;;;1.75;;
71162;SDS011;58858;50.948;6.566;2022-09-20T13:33:48;4.68;;;1.08;;
71162;SDS011;58858;50.948;6.566;2022-09-20T13:43:49;3.17;;;1.15;;
71162;SDS011;58858;50.948;6.566;2022-09-20T13:53:51;3.47;;;1.23;;
71162;SDS011;58858;50.948;6.566;2022-09-20T14:03:52;4.95;;;1.25;;
71162;SDS011;58858;50.948;6.566;2022-09-20T14:13:55;3.13;;;0.82;;
71162;SDS011;58858;50.948;6.566;2022-09-20T14:34:10;3.47;;;1.60;;
71162;SDS011;58858;50.948;6.566;2022-09-20T14:54:24;1.60;;;1.02;;
71162;SDS011;58858;50.948;6.566;2022-09-20T15:04:33;2.55;;;0.60;;
71162;SDS011;58858;50.948;6.566;2022-09-20T15:14:37;5.30;;;0.75;;
71162;SDS011;58858;50.948;6.566;2022-09-20T15:24:40;3.50;;;0.60;;
71162;SDS011;58858;50.948;6.566;2022-09-20T15:34:41;5.65;;;0.65;;
71162;SDS011;58858;50.948;6.566;2022-09-20T15:44:42;3.15;;;0.82;;
71162;SDS011;58858;50.948;6.566;2022-09-20T15:54:43;1.95;;;0.50;;
71162;SDS011;58858;50.948;6.566;2022-09-20T16:04:45;3.70;;;0.40;;
71162;SDS011;58858;50.948;6.566;2022-09-20T16:14:46;1.67;;;1.00;;
71162;SDS011;58858;50.948;6.566;2022-09-20T16:24:48;2.60;;;0.73;;
71162;SDS011;58858;50.948;6.566;2022-09-20T16:34:49;4.70;;;4.00;;
71162;SDS011;58858;50.948;6.566;2022-09-20T16:44:54;3.28;;;1.17;;
71162;SDS011;58858;50.948;6.566;2022-09-20T16:54:55;4.25;;;1.50;;
71162;SDS011;58858;50.948;6.566;2022-09-20T17:04:56;2.72;;;0.55;;
71162;SDS011;58858;50.948;6.566;2022-09-20T17:14:57;4.47;;;1.83;;
71162;SDS011;58858;50.948;6.566;2022-09-20T17:24:58;2.35;;;1.13;;
71162;SDS011;58858;50.948;6.566;2022-09-20T17:34:59;2.63;;;1.10;;
71162;SDS011;58858;50.948;6.566;2022-09-20T17:45:04;1.55;;;0.75;;
71162;SDS011;58858;50.948;6.566;2022-09-20T17:55:05;2.22;;;1.65;;
71162;SDS011;58858;50.948;6.566;2022-09-20T18:05:07;1.08;;;0.40;;
71162;SDS011;58858;50.948;6.566;2022-09-20T18:15:08;1.10;;;0.60;;
71162;SDS011;58858;50.948;6.566;2022-09-20T18:25:10;4.47;;;0.82;;
71162;SDS011;58858;50.948;6.566;2022-09-20T18:35:11;6.03;;;1.02;;
71162;SDS011;58858;50.948;6.566;2022-09-20T18:45:12;5.03;;;2.10;;
71162;SDS011;58858;50.948;6.566;2022-09-20T18:55:13;2.58;;;1.30;;
71162;SDS011;58858;50.948;6.566;2022-09-20T19:05:20;4.45;;;1.30;;
71162;SDS011;58858;50.948;6.566;2022-09-20T19:35:45;4.78;;;1.83;;
71162;SDS011;58858;50.948;6.566;2022-09-20T19:56:02;7.03;;;2.15;;
71162;SDS011;58858;50.948;6.566;2022-09-20T20:06:24;12.98;;;6.53;;
71162;SDS011;58858;50.948;6.566;2022-09-20T20:16:42;6.22;;;2.28;;
71162;SDS011;58858;50.948;6.566;2022-09-20T20:26:57;3.55;;;1.83;;
71162;SDS011;58858;50.948;6.566;2022-09-20T20:36:58;3.55;;;1.75;;
71162;SDS011;58858;50.948;6.566;2022-09-20T20:47:02;6.95;;;1.83;;
71162;SDS011;58858;50.948;6.566;2022-09-20T20:57:07;10.07;;;2.65;;
71162;SDS011;58858;50.948;6.566;2022-09-20T21:07:08;5.72;;;2.30;;
71162;SDS011;58858;50.948;6.566;2022-09-20T21:17:10;8.38;;;2.08;;
71162;SDS011;58858;50.948;6.566;2022-09-20T21:27:11;3.05;;;1.98;;
71162;SDS011;58858;50.948;6.566;2022-09-20T21:37:12;8.88;;;2.30;;
71162;SDS011;58858;50.948;6.566;2022-09-20T21:47:13;3.83;;;1.98;;
71162;SDS011;58858;50.948;6.566;2022-09-20T21:57:19;5.72;;;1.83;;
71162;SDS011;58858;50.948;6.566;2022-09-20T22:07:20;4.63;;;2.75;;
71162;SDS011;58858;50.948;6.566;2022-09-20T22:17:22;5.43;;;2.40;;
71162;SDS011;58858;50.948;6.566;2022-09-20T22:27:23;4.97;;;2.17;;
71162;SDS011;58858;50.948;6.566;2022-09-20T22:37:24;6.53;;;2.38;;
71162;SDS011;58858;50.948;6.566;2022-09-20T22:47:25;9.68;;;2.67;;
71162;SDS011;58858;50.948;6.566;2022-09-20T22:57:26;6.60;;;2.92;;
71162;SDS011;58858;50.948;6.566;2022-09-20T23:07:27;7.28;;;2.20;;
71162;SDS011;58858;50.948;6.566;2022-09-20T23:17:28;6.07;;;2.50;;
71162;SDS011;58858;50.948;6.566;2022-09-20T23:27:29;8.60;;;3.58;;
71162;SDS011;58858;50.948;6.566;2022-09-20T23:37:30;6.80;;;4.10;;
71162;SDS011;58858;50.948;6.566;2022-09-20T23:47:31;8.73;;;4.80;;
71162;SDS011;58858;50.948;6.566;2022-09-20T23:57:32;10.35;;;5.47;;
